Liberty of The Seas — C6VQ8 — position and weather

sailwx.info

Track history (hours):
 
Tides and Currents Weather Stations Pressure Air Temp Water Temp Dewpoint Dewpoint Depression Visibility Wind Speed Wind Dir Waves Ship Positions

Liberty of The Seas

Last reported at 2015-May-22 00:18 UTC. Time now 2015-May-24 09:12 UTC.
Position N 39°52' W 073°09'.

Type: Passenger vessel. MMSI: 309436000.

Date/timePositionNaut miles runAvg speedWind from/ knotsBaromVisibWave heightAir tempDewpointWater temp
2015-May-22 00:18N 39°52' W 073°09'3419.3
2015-May-21 22:31N 40°18' W 073°39'1616.4
2015-May-21 21:33N 40°29' W 073°54'1313.3
2015-May-21 20:33N 40°40' W 074°04'0 0.0
2015-May-21 19:32N 40°40' W 074°04'0 0.0
2015-May-21 18:32N 40°40' W 074°04'0 0.0
2015-May-21 17:32N 40°40' W 074°04'0 0.0
2015-May-21 16:29N 40°40' W 074°04'0 0.0
2015-May-21 15:32N 40°40' W 074°04'0 0.0
2015-May-21 14:32N 40°40' W 074°04'0 0.0
2015-May-21 13:32N 40°40' W 074°04'0 0.0
2015-May-21 12:32N 40°40' W 074°04'0 0.0
2015-May-21 11:29N 40°40' W 074°04'3 3.7
2015-May-21 10:33N 40°37' W 074°03'1414.3
2015-May-21 09:33N 40°27' W 073°49'1413.7
2015-May-21 08:30N 40°19' W 073°33'1414.8
2015-May-21 07:33N 40°10' W 073°19'1716.3
2015-May-21 06:32N 39°58' W 073°04'1616.4
2015-May-21 05:33N 39°46' W 072°50'1816.2
2015-May-21 04:26N 39°32' W 072°35'2216.3
2015-May-21 03:06N 39°16' W 072°16'55215.4
2015-May-19 15:22N 32°20' W 064°50'0 0.0
2015-May-19 14:31N 32°20' W 064°50'  
2015-May-17 02:28N 39°28' W 072°42'1920.2
2015-May-17 01:32N 39°42' W 072°58'2019.9
2015-May-17 00:32N 39°57' W 073°15'2120.0
2015-May-16 23:30N 40°13' W 073°33'1818.9
2015-May-16 22:33N 40°27' W 073°48'1212.4
2015-May-16 21:33N 40°33' W 074°02'7 6.8
2015-May-16 20:32N 40°40' W 074°04'0 0.0
2015-May-16 19:32N 40°40' W 074°04'0 0.0
2015-May-16 18:32N 40°40' W 074°04'0 0.0
2015-May-16 17:32N 40°40' W 074°04'0 0.0
2015-May-16 16:32N 40°40' W 074°04'0 0.0
2015-May-16 15:32N 40°40' W 074°04'0 0.0
2015-May-16 14:32N 40°40' W 074°04'0 0.0
2015-May-16 13:32N 40°40' W 074°04'0 0.0
2015-May-16 12:32N 40°40' W 074°04'0 0.0
2015-May-16 11:32N 40°40' W 074°04'1 1.2
2015-May-16 10:34N 40°39' W 074°03'1615.5
2015-May-16 09:33N 40°27' W 073°50'1514.9
2015-May-16 08:34N 40°13' W 073°44'1918.6
2015-May-16 07:34N 39°55' W 073°43'1919.0
2015-May-16 06:33N 39°35' W 073°42'1919.4
2015-May-16 05:33N 39°16' W 073°45'1919.4
2015-May-16 04:33N 38°57' W 073°47'1919.3
2015-May-16 03:34N 38°38' W 073°49'1919.0
2015-May-16 02:33N 38°19' W 073°53'47520.2
2015-May-15 03:00N 30°24' W 073°24'81517.0 080 / 201023.0 21.0
2015-May-13 03:00N 19°36' W 064°18'93 4.5 090 / 251019.0 26.0
2015-May-12 06:22N 18°11' W 064°59'8517.6
2015-May-12 01:32N 18°03' W 063°30'1717.1
2015-May-12 00:33N 18°01' W 063°12'  
Track history (hours):
 
Tides and Currents Weather Stations Pressure Air Temp Water Temp Dewpoint Dewpoint Depression Visibility Wind Speed Wind Dir Waves Ship Positions

Liberty of The Seas

Last reported at 2015-May-22 00:18 UTC. Time now 2015-May-24 09:12 UTC.
Position N 39°52' W 073°09'.

Type: Passenger vessel. MMSI: 309436000.

Date/timePositionNaut miles runAvg speedWind from/ knotsBaromVisibWave heightAir tempDewpointWater temp
2015-May-22 00:18N 39°52' W 073°09'3419.3
2015-May-21 22:31N 40°18' W 073°39'1616.4
2015-May-21 21:33N 40°29' W 073°54'1313.3
2015-May-21 20:33N 40°40' W 074°04'0 0.0
2015-May-21 19:32N 40°40' W 074°04'0 0.0
2015-May-21 18:32N 40°40' W 074°04'0 0.0
2015-May-21 17:32N 40°40' W 074°04'0 0.0
2015-May-21 16:29N 40°40' W 074°04'0 0.0
2015-May-21 15:32N 40°40' W 074°04'0 0.0
2015-May-21 14:32N 40°40' W 074°04'0 0.0
2015-May-21 13:32N 40°40' W 074°04'0 0.0
2015-May-21 12:32N 40°40' W 074°04'0 0.0
2015-May-21 11:29N 40°40' W 074°04'3 3.7
2015-May-21 10:33N 40°37' W 074°03'1414.3
2015-May-21 09:33N 40°27' W 073°49'1413.7
2015-May-21 08:30N 40°19' W 073°33'1414.8
2015-May-21 07:33N 40°10' W 073°19'1716.3
2015-May-21 06:32N 39°58' W 073°04'1616.4
2015-May-21 05:33N 39°46' W 072°50'1816.2
2015-May-21 04:26N 39°32' W 072°35'2216.3
2015-May-21 03:06N 39°16' W 072°16'55215.4
2015-May-19 15:22N 32°20' W 064°50'0 0.0
2015-May-19 14:31N 32°20' W 064°50'  
2015-May-17 02:28N 39°28' W 072°42'1920.2
2015-May-17 01:32N 39°42' W 072°58'2019.9
2015-May-17 00:32N 39°57' W 073°15'2120.0
2015-May-16 23:30N 40°13' W 073°33'1818.9
2015-May-16 22:33N 40°27' W 073°48'1212.4
2015-May-16 21:33N 40°33' W 074°02'7 6.8
2015-May-16 20:32N 40°40' W 074°04'0 0.0
2015-May-16 19:32N 40°40' W 074°04'0 0.0
2015-May-16 18:32N 40°40' W 074°04'0 0.0
2015-May-16 17:32N 40°40' W 074°04'0 0.0
2015-May-16 16:32N 40°40' W 074°04'0 0.0
2015-May-16 15:32N 40°40' W 074°04'0 0.0
2015-May-16 14:32N 40°40' W 074°04'0 0.0
2015-May-16 13:32N 40°40' W 074°04'0 0.0
2015-May-16 12:32N 40°40' W 074°04'0 0.0
2015-May-16 11:32N 40°40' W 074°04'1 1.2
2015-May-16 10:34N 40°39' W 074°03'1615.5
2015-May-16 09:33N 40°27' W 073°50'1514.9
2015-May-16 08:34N 40°13' W 073°44'1918.6
2015-May-16 07:34N 39°55' W 073°43'1919.0
2015-May-16 06:33N 39°35' W 073°42'1919.4
2015-May-16 05:33N 39°16' W 073°45'1919.4
2015-May-16 04:33N 38°57' W 073°47'1919.3
2015-May-16 03:34N 38°38' W 073°49'1919.0
2015-May-16 02:33N 38°19' W 073°53'47520.2
2015-May-15 03:00N 30°24' W 073°24'81517.0 080 / 201023.0 21.0
2015-May-13 03:00N 19°36' W 064°18'93 4.5 090 / 251019.0 26.0
2015-May-12 06:22N 18°11' W 064°59'8517.6
2015-May-12 01:32N 18°03' W 063°30'1717.1
2015-May-12 00:33N 18°01' W 063°12'  

Dump ship's entire track history